createdAt,value
2018-06-12T00:00:16.103Z,27.75
2018-06-12T00:02:44.952Z,26.52
2018-06-12T00:05:13.791Z,27.92
2018-06-12T00:07:42.643Z,26.40
2018-06-12T00:10:11.499Z,27.17
2018-06-12T00:12:40.342Z,30.55
2018-06-12T00:15:09.209Z,26.12
2018-06-12T00:17:38.058Z,26.15
2018-06-12T00:20:06.904Z,24.37
2018-06-12T00:22:35.735Z,25.60
2018-06-12T00:25:04.567Z,25.80
2018-06-12T00:27:34.146Z,25.43
2018-06-12T00:30:02.987Z,24.23
2018-06-12T00:32:31.838Z,23.43
2018-06-12T00:35:00.684Z,23.98
2018-06-12T00:37:29.523Z,24.23
2018-06-12T00:39:58.367Z,22.25
2018-06-12T00:42:27.206Z,27.83
2018-06-12T00:44:56.040Z,24.17
2018-06-12T00:47:24.889Z,22.42
2018-06-12T00:49:54.465Z,22.80
2018-06-12T00:52:23.304Z,22.17
2018-06-12T00:54:52.149Z,19.90
2018-06-12T00:57:20.983Z,21.03
2018-06-12T00:59:49.820Z,20.90
2018-06-12T01:02:18.667Z,20.97
2018-06-12T01:04:47.512Z,19.90
2018-06-12T01:07:16.355Z,19.57
2018-06-12T01:09:45.191Z,18.17
2018-06-12T01:12:14.047Z,16.57
2018-06-12T01:14:42.891Z,18.23
2018-06-12T01:17:11.727Z,16.83
2018-06-12T01:19:40.580Z,16.57
2018-06-12T01:22:09.424Z,15.93
2018-06-12T01:24:38.259Z,16.67
2018-06-12T01:27:07.101Z,15.77
2018-06-12T01:29:35.937Z,16.53
2018-06-12T01:32:04.933Z,15.03
2018-06-12T01:34:33.768Z,15.73
2018-06-12T01:37:02.614Z,16.13
2018-06-12T01:39:31.458Z,15.07
2018-06-12T01:42:00.299Z,14.33
2018-06-12T01:44:29.131Z,14.93
2018-06-12T01:46:57.976Z,14.53
2018-06-12T01:49:26.810Z,17.20
2018-06-12T01:51:55.660Z,14.17
2018-06-12T01:54:24.499Z,16.98
2018-06-12T01:56:54.089Z,15.70
2018-06-12T01:59:22.937Z,13.63
2018-06-12T02:01:51.803Z,14.30
2018-06-12T02:04:21.375Z,14.43
2018-06-12T02:06:50.216Z,13.27
2018-06-12T02:09:19.052Z,13.67
2018-06-12T02:11:47.892Z,14.47
2018-06-12T02:14:16.736Z,15.83
2018-06-12T02:16:45.583Z,14.50
2018-06-12T02:19:14.432Z,14.57
2018-06-12T02:21:44.014Z,15.27
2018-06-12T02:24:12.854Z,18.00
2018-06-12T02:26:41.697Z,15.97
2018-06-12T02:29:11.112Z,16.10
2018-06-12T02:31:40.698Z,16.17
2018-06-12T02:34:09.552Z,18.37
2018-06-12T02:36:38.384Z,15.23
2018-06-12T02:39:07.232Z,14.80
2018-06-12T02:41:36.063Z,17.77
2018-06-12T02:44:04.899Z,16.30
2018-06-12T02:46:33.752Z,15.50
2018-06-12T02:49:02.585Z,14.63
2018-06-12T02:51:31.415Z,15.20
2018-06-12T02:54:00.265Z,16.10
2018-06-12T02:56:29.102Z,16.00
2018-06-12T02:58:57.940Z,15.43
2018-06-12T03:01:26.787Z,16.80
2018-06-12T03:03:56.406Z,16.60
2018-06-12T03:06:25.250Z,18.58
2018-06-12T03:08:54.095Z,16.00
2018-06-12T03:11:22.932Z,19.48
2018-06-12T03:13:51.776Z,16.67
2018-06-12T03:16:20.618Z,16.77
2018-06-12T03:18:49.463Z,15.97
2018-06-12T03:21:18.302Z,16.90
2018-06-12T03:23:47.134Z,18.53
2018-06-12T03:26:15.975Z,17.70
2018-06-12T03:28:44.824Z,17.70
2018-06-12T03:31:13.670Z,17.43
2018-06-12T03:33:42.517Z,16.70
2018-06-12T03:36:11.357Z,17.37
2018-06-12T03:38:40.200Z,16.67
2018-06-12T03:41:09.032Z,16.07
2018-06-12T03:43:38.612Z,16.80
2018-06-12T03:46:07.460Z,19.75
2018-06-12T03:48:36.311Z,18.27
2018-06-12T03:51:05.160Z,17.33
2018-06-12T03:53:33.990Z,16.50
2018-06-12T03:56:03.581Z,17.87
2018-06-12T03:58:32.405Z,20.08
2018-06-12T04:01:01.245Z,18.43
2018-06-12T04:03:30.092Z,17.50
2018-06-12T04:05:58.934Z,17.30
2018-06-12T04:08:27.772Z,18.20
2018-06-12T04:10:56.614Z,17.40
2018-06-12T04:13:25.464Z,17.63
2018-06-12T04:15:54.299Z,17.77
2018-06-12T04:18:23.152Z,17.17
2018-06-12T04:20:51.992Z,19.67
2018-06-12T04:23:21.569Z,17.40
2018-06-12T04:25:50.433Z,19.52
2018-06-12T04:28:19.246Z,17.57
2018-06-12T04:30:48.087Z,17.53
2018-06-12T04:33:16.929Z,16.57
2018-06-12T04:35:46.520Z,17.83
2018-06-12T04:38:15.346Z,16.80
2018-06-12T04:40:44.937Z,17.77
2018-06-12T04:43:13.784Z,19.58
2018-06-12T04:45:42.616Z,17.07
2018-06-12T04:48:11.458Z,17.93
2018-06-12T04:50:40.291Z,17.50
2018-06-12T04:53:09.132Z,16.93
2018-06-12T04:55:37.996Z,16.30
2018-06-12T04:58:06.837Z,17.70
2018-06-12T05:00:35.663Z,18.10
2018-06-12T05:03:04.524Z,19.03
2018-06-12T05:05:33.372Z,21.58
2018-06-12T05:08:02.223Z,18.03
2018-06-12T05:10:31.128Z,16.93
2018-06-12T05:12:59.916Z,18.33
2018-06-12T05:15:28.754Z,15.33
2018-06-12T05:17:57.595Z,13.50
2018-06-12T05:20:27.179Z,13.50
2018-06-12T05:22:56.033Z,14.57
2018-06-12T05:25:24.872Z,14.13
2018-06-12T05:27:53.728Z,14.47
2018-06-12T05:30:22.568Z,15.27
2018-06-12T05:32:51.425Z,13.37
2018-06-12T05:35:20.266Z,12.63
2018-06-12T05:37:49.107Z,13.23
2018-06-12T05:40:17.940Z,12.90
2018-06-12T05:42:46.783Z,13.37
2018-06-12T05:45:15.616Z,12.53
2018-06-12T05:47:44.462Z,13.10
2018-06-12T05:50:13.303Z,12.53
2018-06-12T05:52:42.145Z,11.93
2018-06-12T05:55:10.974Z,12.30
2018-06-12T05:57:39.831Z,12.33
2018-06-12T06:00:09.407Z,12.17
2018-06-12T06:02:38.242Z,13.50
2018-06-12T06:05:07.094Z,13.47
2018-06-12T06:07:36.534Z,13.93
2018-06-12T06:10:05.369Z,14.07
2018-06-12T06:12:34.221Z,14.33
2018-06-12T06:15:03.070Z,13.70
2018-06-12T06:17:31.908Z,13.53
2018-06-12T06:20:00.756Z,13.67
2018-06-12T06:22:29.621Z,13.33
2018-06-12T06:24:58.458Z,15.95
2018-06-12T06:27:27.299Z,13.77
2018-06-12T06:29:56.136Z,15.53
2018-06-12T06:32:25.879Z,14.80
2018-06-12T06:34:54.586Z,15.27
2018-06-12T06:37:23.423Z,16.60
2018-06-12T06:39:52.308Z,13.93
2018-06-12T06:42:21.128Z,14.27
2018-06-12T06:44:49.959Z,16.75
2018-06-12T06:47:18.809Z,15.98
2018-06-12T06:49:47.654Z,14.77
2018-06-12T06:52:17.241Z,14.87
2018-06-12T06:54:46.096Z,16.80
2018-06-12T06:57:14.920Z,15.52
2018-06-12T06:59:43.906Z,16.30
2018-06-12T07:02:12.752Z,19.67
2018-06-12T07:04:41.602Z,16.25
2018-06-12T07:07:10.440Z,18.30
2018-06-12T07:09:39.291Z,18.62
2018-06-12T07:12:08.884Z,17.77
2018-06-12T07:14:37.733Z,14.87
2018-06-12T07:17:06.568Z,14.50
2018-06-12T07:19:36.153Z,14.70
2018-06-12T07:22:04.993Z,18.00
2018-06-12T07:24:33.842Z,15.48
2018-06-12T07:27:02.731Z,15.13
2018-06-12T07:29:31.532Z,16.37
2018-06-12T07:32:00.383Z,14.00
2018-06-12T07:36:18.403Z,15.38
2018-06-12T07:38:47.250Z,15.23
2018-06-12T07:41:16.092Z,15.50
2018-06-12T07:43:44.925Z,15.30
2018-06-12T07:46:13.766Z,14.70
2018-06-12T07:48:42.607Z,14.57
2018-06-12T07:51:11.450Z,16.62
2018-06-12T07:53:40.291Z,16.97
2018-06-12T07:56:09.883Z,15.27
2018-06-12T07:58:38.750Z,17.35
2018-06-12T08:01:07.588Z,19.27
2018-06-12T08:03:36.433Z,18.27
2018-06-12T08:06:05.295Z,19.80
2018-06-12T08:08:34.142Z,17.20
2018-06-12T08:11:02.975Z,17.47
2018-06-12T08:13:31.824Z,17.35
2018-06-12T08:16:00.684Z,23.23
2018-06-12T08:18:29.562Z,25.50
2018-06-12T08:20:58.371Z,20.92
2018-06-12T08:23:27.796Z,20.60
2018-06-12T08:25:57.412Z,21.33
2018-06-12T08:28:26.243Z,25.08
2018-06-12T08:30:55.103Z,24.43
2018-06-12T08:33:23.950Z,21.62
2018-06-12T08:35:53.533Z,20.63
2018-06-12T08:38:22.367Z,22.80
2018-06-12T08:40:52.037Z,24.37
2018-06-12T08:43:21.578Z,29.83
2018-06-12T08:45:51.160Z,27.08
2018-06-12T08:48:20.003Z,25.80
2018-06-12T08:50:48.861Z,23.33
2018-06-12T08:53:17.741Z,22.17
2018-06-12T08:55:46.586Z,28.42
2018-06-12T08:58:15.435Z,27.25
2018-06-12T09:00:44.268Z,19.52
2018-06-12T09:03:13.111Z,19.77
2018-06-12T09:05:42.690Z,17.97
2018-06-12T09:08:11.535Z,15.60
2018-06-12T09:10:40.382Z,16.70
2018-06-12T09:13:09.237Z,15.87
2018-06-12T09:15:38.093Z,17.30
2018-06-12T09:18:06.941Z,14.40
2018-06-12T09:20:35.782Z,14.03
2018-06-12T09:23:04.878Z,13.07
2018-06-12T09:25:34.228Z,14.53
2018-06-12T09:28:03.073Z,13.43
2018-06-12T09:30:31.912Z,15.07
2018-06-12T09:33:00.755Z,16.33
2018-06-12T09:35:29.595Z,15.33
2018-06-12T09:37:58.440Z,15.27
2018-06-12T09:40:27.300Z,14.60
2018-06-12T09:42:56.174Z,13.53
2018-06-12T09:45:25.758Z,13.77
2018-06-12T09:47:55.705Z,13.20
2018-06-12T09:50:25.274Z,13.37
2018-06-12T09:52:54.107Z,12.97
2018-06-12T09:55:22.953Z,12.53
2018-06-12T09:57:51.787Z,12.90
2018-06-12T10:00:20.648Z,14.00
2018-06-12T10:02:49.501Z,14.37
2018-06-12T10:05:18.339Z,16.65
2018-06-12T10:07:48.911Z,13.23
2018-06-12T10:10:17.710Z,12.77
2018-06-12T10:12:46.542Z,17.12
2018-06-12T10:15:16.133Z,13.27
2018-06-12T10:17:44.964Z,12.73
2018-06-12T10:20:13.799Z,12.77
2018-06-12T10:22:42.635Z,12.80
2018-06-12T10:25:11.474Z,12.73
2018-06-12T10:27:40.310Z,12.63
2018-06-12T10:30:09.159Z,12.93
2018-06-12T10:32:38.000Z,11.90
2018-06-12T10:35:06.838Z,11.93
2018-06-12T10:37:35.686Z,12.63
2018-06-12T10:40:04.546Z,11.93
2018-06-12T10:42:34.143Z,14.03
2018-06-12T10:45:03.737Z,16.30
2018-06-12T10:47:33.260Z,17.10
2018-06-12T10:50:02.869Z,18.23
2018-06-12T10:52:31.691Z,17.23
2018-06-12T10:55:00.519Z,16.05
2018-06-12T10:57:29.350Z,17.35
2018-06-12T10:59:58.213Z,16.75
2018-06-12T11:02:27.050Z,16.37
2018-06-12T11:04:55.896Z,15.83
2018-06-12T11:07:25.501Z,14.35
2018-06-12T11:09:55.071Z,13.63
2018-06-12T11:12:23.909Z,14.00
2018-06-12T11:14:52.756Z,14.23
2018-06-12T11:17:21.605Z,14.40
2018-06-12T11:19:50.451Z,25.60
2018-06-12T11:22:19.313Z,14.52
2018-06-12T11:24:48.145Z,15.25
2018-06-12T11:27:17.776Z,13.20
2018-06-12T11:29:47.166Z,12.75
2018-06-12T11:32:16.017Z,13.73
2018-06-12T11:34:44.853Z,11.75
2018-06-12T11:37:13.709Z,12.98
2018-06-12T11:39:42.569Z,11.68
2018-06-12T11:42:11.421Z,12.30
2018-06-12T11:44:40.263Z,12.35
2018-06-12T11:47:09.131Z,11.85
2018-06-12T11:49:37.977Z,10.95
2018-06-12T11:52:07.564Z,10.70
2018-06-12T11:54:36.412Z,11.55
2018-06-12T11:57:05.256Z,12.98
2018-06-12T11:59:34.833Z,11.88
2018-06-12T12:02:03.676Z,12.20
2018-06-12T12:04:32.523Z,11.27
2018-06-12T12:07:01.385Z,11.63
2018-06-12T12:09:30.247Z,12.93
2018-06-12T12:11:59.095Z,10.98
2018-06-12T12:14:28.671Z,9.95
2018-06-12T12:16:57.564Z,10.90
2018-06-12T12:19:26.361Z,10.85
2018-06-12T12:21:55.210Z,10.57
2018-06-12T12:24:24.063Z,10.77
2018-06-12T12:26:53.652Z,10.18
2018-06-12T12:29:22.509Z,11.60
2018-06-12T12:31:51.372Z,11.98
2018-06-12T12:34:20.198Z,9.77
2018-06-12T12:36:49.037Z,10.07
2018-06-12T12:39:18.621Z,10.70
2018-06-12T12:41:47.472Z,9.52
2018-06-12T12:44:16.326Z,12.15
2018-06-12T12:46:45.172Z,9.85
2018-06-12T12:49:14.016Z,9.95
2018-06-12T12:51:42.863Z,10.93
2018-06-12T12:54:11.711Z,10.65
2018-06-12T12:56:40.551Z,10.68
2018-06-12T12:59:10.144Z,11.20
2018-06-12T13:01:38.995Z,12.00
2018-06-12T13:04:07.856Z,11.18
2018-06-12T13:06:36.706Z,10.70
2018-06-12T13:09:05.549Z,10.40
2018-06-12T13:11:34.512Z,12.13
2018-06-12T13:14:04.095Z,11.63
2018-06-12T13:16:32.939Z,12.13
2018-06-12T13:19:01.780Z,10.90
2018-06-12T13:21:30.622Z,10.52
2018-06-12T13:23:59.469Z,10.68
2018-06-12T13:26:29.048Z,10.48
2018-06-12T13:28:57.908Z,10.52
2018-06-12T13:31:27.698Z,13.50
2018-06-12T13:33:57.314Z,12.95
2018-06-12T13:36:26.127Z,10.57
2018-06-12T13:38:54.976Z,10.73
2018-06-12T13:41:23.838Z,12.50
2018-06-12T13:43:52.682Z,10.88
2018-06-12T13:46:21.539Z,11.98
2018-06-12T13:48:50.373Z,10.15
2018-06-12T13:51:19.216Z,11.70
2018-06-12T13:53:48.799Z,11.93
2018-06-12T13:56:17.646Z,13.25
2018-06-12T13:58:46.491Z,12.70
2018-06-12T14:01:15.340Z,11.70
2018-06-12T14:03:44.183Z,10.50
2018-06-12T14:06:13.766Z,10.90
2018-06-12T14:08:42.602Z,10.73
2018-06-12T14:11:11.484Z,10.70
2018-06-12T14:13:40.326Z,9.73
2018-06-12T14:16:09.163Z,11.85
2018-06-12T14:18:38.532Z,10.95
2018-06-12T14:21:07.400Z,10.85
2018-06-12T14:23:36.244Z,10.50
2018-06-12T14:26:05.098Z,11.07
2018-06-12T14:28:33.946Z,10.93
2018-06-12T14:31:06.794Z,11.00
2018-06-12T14:33:35.287Z,11.15
2018-06-12T14:36:04.139Z,10.77
2018-06-12T14:38:32.987Z,10.23
2018-06-12T14:41:02.021Z,10.20
2018-06-12T14:43:32.564Z,11.32
2018-06-12T14:46:00.322Z,11.90
2018-06-12T14:48:29.179Z,12.88
2018-06-12T14:50:59.186Z,14.00
2018-06-12T14:53:28.028Z,14.23
2018-06-12T14:55:57.629Z,13.80
2018-06-12T14:58:27.211Z,12.93
2018-06-12T15:00:56.051Z,13.83
2018-06-12T15:03:24.904Z,14.10
2018-06-12T15:05:53.775Z,13.80
2018-06-12T15:08:23.234Z,17.87
2018-06-12T15:10:52.085Z,15.23
2018-06-12T15:13:20.929Z,14.32
2018-06-12T15:15:50.510Z,14.73
2018-06-12T15:18:19.347Z,14.55
2018-06-12T15:20:48.219Z,15.60
2018-06-12T15:23:17.053Z,14.00
2018-06-12T15:25:46.634Z,15.20
2018-06-12T15:28:15.482Z,14.83
2018-06-12T15:30:44.321Z,14.93
2018-06-12T15:33:13.166Z,14.10
2018-06-12T15:35:42.023Z,15.02
2018-06-12T15:38:11.612Z,14.47
2018-06-12T15:40:40.464Z,15.70
2018-06-12T15:43:09.324Z,16.37
2018-06-12T15:45:38.207Z,14.05
2018-06-12T15:48:07.779Z,14.70
2018-06-12T15:50:36.678Z,15.15
2018-06-12T15:53:05.489Z,14.30
2018-06-12T15:55:34.344Z,15.68
2018-06-12T15:58:03.194Z,14.73
2018-06-12T16:00:32.041Z,14.43
2018-06-12T16:03:00.891Z,12.40
2018-06-12T16:05:29.740Z,13.80
2018-06-12T16:07:58.587Z,12.67
2018-06-12T16:10:27.422Z,12.17
2018-06-12T16:12:56.270Z,10.97
2018-06-12T16:15:25.103Z,11.77
2018-06-12T16:17:53.959Z,13.27
2018-06-12T16:20:22.795Z,11.87
2018-06-12T16:22:51.644Z,14.63
2018-06-12T16:25:20.494Z,11.43
2018-06-12T16:27:49.345Z,10.77
2018-06-12T16:30:18.202Z,10.47
2018-06-12T16:32:47.043Z,10.70
2018-06-12T16:35:15.892Z,10.37
2018-06-12T16:37:44.753Z,10.93
2018-06-12T16:40:13.591Z,12.07
2018-06-12T16:42:42.445Z,10.23
2018-06-12T16:45:11.290Z,10.60
2018-06-12T16:47:40.132Z,10.30
2018-06-12T16:50:08.967Z,11.07
2018-06-12T16:52:37.817Z,11.30
2018-06-12T16:55:06.687Z,10.47
2018-06-12T16:57:35.534Z,11.17
2018-06-12T17:00:04.790Z,9.47
2018-06-12T17:02:33.705Z,8.90
2018-06-12T17:05:02.516Z,9.17
2018-06-12T17:07:31.362Z,10.23
2018-06-12T17:10:00.938Z,8.77
2018-06-12T17:12:29.800Z,10.63
2018-06-12T17:14:58.630Z,9.90
2018-06-12T17:17:27.471Z,9.13
2018-06-12T17:19:56.329Z,12.33
2018-06-12T17:22:25.902Z,8.67
2018-06-12T17:24:54.752Z,8.40
2018-06-12T17:27:23.591Z,8.40
2018-06-12T17:29:53.066Z,8.10
2018-06-12T17:32:21.959Z,8.70
2018-06-12T17:34:50.793Z,8.30
2018-06-12T17:37:20.380Z,11.23
2018-06-12T17:39:49.223Z,7.37
2018-06-12T17:42:18.054Z,7.70
2018-06-12T17:44:46.912Z,7.47
2018-06-12T17:47:15.763Z,7.37
2018-06-12T17:49:44.616Z,7.00
2018-06-12T17:52:13.438Z,7.75
2018-06-12T17:54:42.358Z,7.10
2018-06-12T17:57:11.167Z,6.63
2018-06-12T17:59:40.004Z,11.37
2018-06-12T18:02:09.610Z,10.57
2018-06-12T18:04:39.197Z,9.23
2018-06-12T18:07:08.054Z,19.90
2018-06-12T18:09:36.895Z,7.80
2018-06-12T18:12:05.738Z,7.20
2018-06-12T18:14:34.580Z,9.57
2018-06-12T18:17:03.445Z,9.67
2018-06-12T18:19:32.261Z,8.32
2018-06-12T18:22:01.090Z,7.90
2018-06-12T18:24:29.916Z,7.20
2018-06-12T18:26:58.775Z,8.30
2018-06-12T18:29:28.162Z,9.93
2018-06-12T18:31:57.002Z,8.00
2018-06-12T18:34:25.832Z,7.27
2018-06-12T18:36:54.677Z,7.57
2018-06-12T18:39:24.179Z,9.03
2018-06-12T18:41:53.608Z,13.97
2018-06-12T18:44:22.978Z,14.52
2018-06-12T18:46:52.551Z,9.10
2018-06-12T18:49:21.489Z,6.80
2018-06-12T18:51:50.325Z,6.27
2018-06-12T18:54:19.262Z,6.77
2018-06-12T18:56:48.121Z,6.10
2018-06-12T18:59:16.959Z,6.93
2018-06-12T19:01:46.555Z,11.73
2018-06-12T19:04:15.372Z,7.82
2018-06-12T19:06:44.288Z,7.00
2018-06-12T19:09:13.054Z,6.67
2018-06-12T19:11:41.895Z,6.07
2018-06-12T19:14:10.736Z,5.50
2018-06-12T19:16:39.572Z,5.70
2018-06-12T19:19:08.419Z,6.40
2018-06-12T19:21:40.185Z,6.23
2018-06-12T19:24:09.028Z,6.17
2018-06-12T19:26:37.906Z,7.00
2018-06-12T19:29:06.718Z,7.47
2018-06-12T19:31:37.223Z,9.33
2018-06-12T19:34:06.070Z,6.83
2018-06-12T19:36:34.912Z,9.70
2018-06-12T19:39:03.739Z,8.37
2018-06-12T19:41:32.578Z,5.83
2018-06-12T19:44:01.428Z,6.07
2018-06-12T19:46:30.263Z,5.57
2018-06-12T19:48:59.113Z,5.43
2018-06-12T19:51:28.156Z,6.50
2018-06-12T19:53:57.752Z,6.10
2018-06-12T19:56:26.566Z,6.25
2018-06-12T19:58:55.454Z,6.77
2018-06-12T20:01:25.031Z,9.30
2018-06-12T20:03:53.880Z,6.67
2018-06-12T20:06:22.734Z,6.03
2018-06-12T20:08:52.310Z,5.67
2018-06-12T20:11:21.133Z,6.25
2018-06-12T20:13:49.995Z,5.70
2018-06-12T20:16:18.948Z,6.20
2018-06-12T20:18:47.708Z,10.00
2018-06-12T20:21:16.555Z,7.07
2018-06-12T20:23:45.397Z,7.50
2018-06-12T20:26:14.254Z,8.07
2018-06-12T20:28:43.098Z,6.70
2018-06-12T20:31:11.973Z,6.60
2018-06-12T20:33:40.822Z,7.90
2018-06-12T20:36:09.680Z,10.63
2018-06-12T20:38:38.507Z,6.70
2018-06-12T20:41:08.102Z,6.20
2018-06-12T20:43:37.690Z,6.70
2018-06-12T20:46:06.532Z,7.35
2018-06-12T20:48:35.363Z,6.10
2018-06-12T20:51:04.202Z,6.30
2018-06-12T20:53:33.051Z,6.23
2018-06-12T20:56:01.891Z,5.83
2018-06-12T20:58:30.773Z,6.60
2018-06-12T21:00:59.622Z,6.37
2018-06-12T21:03:28.483Z,5.67
2018-06-12T21:05:57.327Z,6.37
2018-06-12T21:08:26.170Z,6.53
2018-06-12T21:10:55.003Z,9.82
2018-06-12T21:13:25.570Z,7.10
2018-06-12T21:15:54.418Z,6.90
2018-06-12T21:18:24.017Z,6.43
2018-06-12T21:20:52.833Z,6.43
2018-06-12T21:23:21.669Z,6.10
2018-06-12T21:25:50.506Z,5.90
2018-06-12T21:28:19.353Z,5.93
2018-06-12T21:30:48.196Z,6.10
2018-06-12T21:33:17.033Z,6.27
2018-06-12T21:35:46.638Z,5.87
2018-06-12T21:38:15.469Z,5.83
2018-06-12T21:40:44.316Z,6.00
2018-06-12T21:43:13.225Z,6.07
2018-06-12T21:45:42.821Z,5.57
2018-06-12T21:48:11.669Z,5.70
2018-06-12T21:50:40.558Z,5.95
2018-06-12T21:53:09.345Z,5.73
2018-06-12T21:55:38.176Z,5.60
2018-06-12T21:58:07.009Z,5.10
2018-06-12T22:00:35.854Z,5.40
2018-06-12T22:03:04.705Z,5.30
2018-06-12T22:05:33.534Z,5.93
2018-06-12T22:08:03.349Z,5.53
2018-06-12T22:10:32.179Z,5.90
2018-06-12T22:13:01.029Z,5.97
2018-06-12T22:15:29.874Z,5.43
2018-06-12T22:17:58.695Z,5.47
2018-06-12T22:20:27.523Z,5.77
2018-06-12T22:22:56.358Z,5.40
2018-06-12T22:25:25.195Z,5.10
2018-06-12T22:27:54.789Z,4.70
2018-06-12T22:30:24.423Z,6.20
2018-06-12T22:32:53.199Z,5.68
2018-06-12T22:35:22.078Z,5.60
2018-06-12T22:37:50.937Z,5.80
2018-06-12T22:40:19.750Z,5.33
2018-06-12T22:42:49.335Z,4.80
2018-06-12T22:45:18.174Z,5.20
2018-06-12T22:47:47.006Z,5.20
2018-06-12T22:50:15.845Z,5.47
2018-06-12T22:52:44.679Z,5.17
2018-06-12T22:55:13.517Z,5.20
2018-06-12T22:57:42.409Z,5.57
2018-06-12T23:00:11.193Z,5.60
2018-06-12T23:02:40.039Z,5.53
2018-06-12T23:05:08.875Z,5.07
2018-06-12T23:07:37.712Z,5.10
2018-06-12T23:10:06.573Z,5.03
2018-06-12T23:12:35.420Z,5.37
2018-06-12T23:15:04.487Z,5.27
2018-06-12T23:17:33.333Z,4.87
2018-06-12T23:20:20.012Z,5.40
2018-06-12T23:22:49.717Z,5.00
2018-06-12T23:25:18.441Z,5.40
2018-06-12T23:27:47.277Z,5.30
2018-06-12T23:30:16.834Z,4.83
2018-06-12T23:32:45.682Z,5.57
2018-06-12T23:35:15.112Z,5.37
2018-06-12T23:37:43.975Z,5.30
2018-06-12T23:40:12.839Z,5.17
2018-06-12T23:42:41.678Z,4.80
2018-06-12T23:45:11.905Z,5.10
2018-06-12T23:47:40.747Z,5.27
2018-06-12T23:50:09.590Z,4.93
2018-06-12T23:52:38.435Z,5.87
2018-06-12T23:55:07.273Z,5.70
2018-06-12T23:57:36.111Z,5.37
